createdAt,value
2023-04-12T00:04:16.259Z,60.77
2023-04-12T00:14:16.531Z,61.95
2023-04-12T00:24:16.637Z,62.45
2023-04-12T00:34:16.859Z,63.00
2023-04-12T00:44:17.953Z,63.85
2023-04-12T00:54:20.037Z,64.71
2023-04-12T01:04:22.242Z,65.80
2023-04-12T01:14:23.484Z,66.53
2023-04-12T01:24:23.624Z,66.91
2023-04-12T01:34:23.728Z,67.43
2023-04-12T01:44:23.595Z,68.49
2023-04-12T01:54:23.602Z,68.99
2023-04-12T02:04:25.019Z,69.47
2023-04-12T02:14:26.672Z,70.10
2023-04-12T02:24:27.363Z,70.58
2023-04-12T02:34:31.517Z,71.17
2023-04-12T02:44:36.577Z,71.95
2023-04-12T02:54:37.727Z,72.77
2023-04-12T03:04:41.147Z,73.35
2023-04-12T03:14:42.658Z,74.42
2023-04-12T03:24:45.925Z,74.67
2023-04-12T03:34:46.529Z,74.87
2023-04-12T03:44:48.496Z,75.21
2023-04-12T03:54:50.586Z,75.55
2023-04-12T04:04:52.662Z,75.90
2023-04-12T04:14:54.759Z,75.94
2023-04-12T04:24:56.045Z,76.09
2023-04-12T04:34:56.297Z,76.24
2023-04-12T04:44:59.363Z,76.42
2023-04-12T04:55:04.052Z,76.59
2023-04-12T05:05:05.657Z,76.75
2023-04-12T05:15:11.574Z,76.99
2023-04-12T05:25:10.808Z,77.78
2023-04-12T05:35:12.166Z,78.43
2023-04-12T05:45:12.308Z,78.67
2023-04-12T05:55:14.804Z,78.97
2023-04-12T06:05:16.871Z,79.26
2023-04-12T06:15:19.133Z,79.39
2023-04-12T06:25:20.796Z,79.64
2023-04-12T06:35:21.811Z,79.68
2023-04-12T06:45:22.296Z,79.68
2023-04-12T06:55:22.019Z,79.54
2023-04-12T07:05:22.037Z,79.33
2023-04-12T07:15:21.941Z,78.92
2023-04-12T07:25:22.303Z,78.94
2023-04-12T07:35:22.269Z,79.22
2023-04-12T07:45:24.778Z,78.11
2023-04-12T07:55:25.129Z,77.78
2023-04-12T08:05:25.222Z,77.80
2023-04-12T08:15:25.350Z,77.63
2023-04-12T08:25:25.566Z,77.07
2023-04-12T08:35:26.165Z,76.38
2023-04-12T08:45:26.061Z,75.25
2023-04-12T08:55:26.173Z,75.68
2023-04-12T09:05:26.623Z,75.74
2023-04-12T09:15:27.131Z,74.96
2023-04-12T09:25:27.212Z,76.55
2023-04-12T09:35:27.207Z,75.64
2023-04-12T09:45:27.975Z,76.40
2023-04-12T09:55:28.277Z,75.51
2023-04-12T10:05:29.493Z,72.62
2023-04-12T10:15:32.093Z,75.18
2023-04-12T10:25:32.285Z,74.76
2023-04-12T10:35:32.308Z,74.68
2023-04-12T10:45:33.482Z,76.10
2023-04-12T10:55:33.283Z,76.49
2023-04-12T11:05:35.248Z,76.32
2023-04-12T11:15:35.797Z,75.38
2023-04-12T11:25:36.334Z,72.75
2023-04-12T11:35:36.548Z,71.50
2023-04-12T11:45:36.758Z,70.23
2023-04-12T11:55:37.405Z,69.60
2023-04-12T12:05:38.051Z,70.26
2023-04-12T12:15:38.510Z,69.01
2023-04-12T12:25:38.480Z,67.89
2023-04-12T12:35:38.602Z,65.77
2023-04-12T12:45:40.155Z,63.38
2023-04-12T12:55:40.580Z,61.91
2023-04-12T13:05:43.573Z,61.05
2023-04-12T13:15:45.411Z,59.57
2023-04-12T13:25:45.857Z,59.67
2023-04-12T13:35:46.944Z,59.23
2023-04-12T13:45:47.860Z,57.45
2023-04-12T13:55:49.655Z,57.69
2023-04-12T14:05:49.669Z,59.22
2023-04-12T14:15:49.624Z,58.88
2023-04-12T14:25:49.805Z,58.36
2023-04-12T14:35:49.717Z,59.56
2023-04-12T14:45:49.571Z,60.32
2023-04-12T14:55:49.626Z,59.30
2023-04-12T15:05:49.820Z,61.19
2023-04-12T15:15:49.726Z,62.59
2023-04-12T15:25:50.053Z,63.15
2023-04-12T15:35:50.838Z,63.48
2023-04-12T15:45:52.893Z,61.85
2023-04-12T15:55:54.355Z,62.69
2023-04-12T16:05:56.735Z,63.25
2023-04-12T16:15:56.752Z,63.51
2023-04-12T16:25:56.787Z,64.42
2023-04-12T16:35:56.797Z,65.04
2023-04-12T16:45:57.142Z,64.49
2023-04-12T16:55:58.665Z,64.78
2023-04-12T17:05:59.012Z,65.15
2023-04-12T17:15:58.902Z,65.25
2023-04-12T17:25:58.900Z,65.44
2023-04-12T17:35:58.972Z,65.24
2023-04-12T17:46:01.228Z,65.47
2023-04-12T17:56:02.353Z,65.97
2023-04-12T18:06:03.728Z,66.64
2023-04-12T18:16:04.017Z,67.38
2023-04-12T18:26:03.942Z,67.74
2023-04-12T18:36:03.995Z,67.98
2023-04-12T18:46:03.860Z,68.17
2023-04-12T18:56:03.980Z,68.35
2023-04-12T19:06:04.197Z,68.48
2023-04-12T19:16:05.863Z,68.60
2023-04-12T19:26:06.021Z,68.66
2023-04-12T19:36:06.876Z,68.72
2023-04-12T19:46:07.844Z,69.04
2023-04-12T19:56:09.273Z,69.75
2023-04-12T20:06:09.061Z,70.25
2023-04-12T20:16:09.436Z,71.19
2023-04-12T20:26:10.000Z,72.10
2023-04-12T20:36:10.467Z,72.96
2023-04-12T20:46:14.368Z,73.56
2023-04-12T20:56:15.149Z,74.11
2023-04-12T21:06:16.617Z,74.58
2023-04-12T21:16:17.181Z,74.73
2023-04-12T21:26:17.106Z,74.63
2023-04-12T21:36:17.471Z,75.36
2023-04-12T21:46:18.390Z,76.09
2023-04-12T21:56:18.144Z,76.65
2023-04-12T22:06:19.078Z,76.79
2023-04-12T22:16:21.368Z,76.63
2023-04-12T22:26:21.226Z,76.67
2023-04-12T22:36:21.198Z,76.61
2023-04-12T22:46:21.265Z,76.75
2023-04-12T22:56:21.470Z,76.91
2023-04-12T23:06:21.297Z,77.03
2023-04-12T23:16:21.914Z,76.87
2023-04-12T23:26:22.258Z,76.83
2023-04-12T23:36:24.104Z,76.87
2023-04-12T23:46:24.318Z,76.86
2023-04-12T23:56:24.311Z,76.82
